Time;durP1;ratioP1;P1;durP2;ratioP2;P2;SDS_P1;SDS_P2;PMS_P1;PMS_P2;Temp;Humidity;BMP_temperature;BMP_pressure;BME280_temperature;BME280_humidity;BME280_pressure;Samples;Min_cycle;Max_cycle;Signal;HPM_P1;HPM_P2
2023/06/21 00:00:45;;;;;;;44.67;40.03;;;;;;;19.08;100.00;100455.38;5011759;28;20061;-70
2023/06/21 00:03:13;;;;;;;46.60;41.83;;;;;;;19.07;100.00;100456.44;5011782;28;20064;-69
2023/06/21 00:05:39;;;;;;;44.10;39.50;;;;;;;19.28;100.00;100452.47;5011578;28;20434;-70
2023/06/21 00:08:06;;;;;;;44.60;39.80;;;;;;;19.26;100.00;100457.31;5011854;28;20132;-69
2023/06/21 00:10:33;;;;;;;43.60;38.78;;;;;;;19.33;100.00;100458.06;5011800;28;20045;-69
2023/06/21 00:13:00;;;;;;;43.50;38.85;;;;;;;19.36;100.00;100457.63;5011762;28;20053;-69
2023/06/21 00:15:27;;;;;;;43.28;37.80;;;;;;;19.46;100.00;100459.81;5012340;28;20104;-69
2023/06/21 00:17:53;;;;;;;43.28;38.85;;;;;;;19.52;100.00;100466.22;5011984;28;20128;-69
2023/06/21 00:20:20;;;;;;;42.10;36.90;;;;;;;19.47;100.00;100465.03;5011641;28;20120;-70
2023/06/21 00:22:47;;;;;;;44.47;38.17;;;;;;;19.46;100.00;100474.25;5011214;28;20058;-69
2023/06/21 00:25:14;;;;;;;41.88;37.30;;;;;;;19.43;100.00;100466.53;5011288;28;20516;-69
2023/06/21 00:27:44;;;;;;;43.53;38.42;;;;;;;19.45;100.00;100475.31;5011262;28;20038;-69
2023/06/21 00:30:11;;;;;;;41.78;37.58;;;;;;;19.45;100.00;100482.63;5011318;28;20045;-69
2023/06/21 00:32:38;;;;;;;40.38;36.17;;;;;;;19.48;100.00;100488.47;5011161;28;20456;-69
2023/06/21 00:35:06;;;;;;;41.75;37.15;;;;;;;19.49;100.00;100483.88;5009562;28;20120;-69
2023/06/21 00:37:32;;;;;;;41.35;36.95;;;;;;;19.47;100.00;100480.53;4992046;28;20233;-69
2023/06/21 00:39:59;;;;;;;40.28;35.85;;;;;;;19.45;100.00;100483.47;4991814;28;20053;-70
2023/06/21 00:42:26;;;;;;;39.00;34.65;;;;;;;19.45;100.00;100486.19;4992150;28;20130;-69
2023/06/21 00:44:53;;;;;;;41.72;35.65;;;;;;;19.47;100.00;100485.97;4991766;28;20050;-68
2023/06/21 00:47:19;;;;;;;41.20;36.80;;;;;;;19.47;100.00;100489.50;4991771;28;20109;-69
2023/06/21 00:49:46;;;;;;;42.25;37.05;;;;;;;19.44;100.00;100484.53;4991465;28;20089;-68
2023/06/21 00:52:13;;;;;;;43.50;37.13;;;;;;;19.33;100.00;100468.94;4991703;28;20109;-68
2023/06/21 00:54:41;;;;;;;43.13;38.58;;;;;;;19.18;100.00;100454.88;4991377;28;20050;-70
2023/06/21 00:57:08;;;;;;;47.13;39.33;;;;;;;19.06;100.00;100445.78;4991606;28;20077;-69
2023/06/21 00:59:35;;;;;;;43.50;38.95;;;;;;;18.96;100.00;100449.81;4991576;28;20050;-68
2023/06/21 01:02:02;;;;;;;45.95;39.88;;;;;;;19.00;100.00;100450.22;4990176;28;20092;-68
2023/06/21 01:04:33;;;;;;;42.03;37.25;;;;;;;19.11;100.00;100452.22;4990437;28;20054;-68
2023/06/21 01:10:43;;;;;;;41.15;36.85;;;;;;;19.25;100.00;100455.66;4990580;28;20047;-68
2023/06/21 01:13:21;;;;;;;41.05;36.67;;;;;;;19.27;100.00;100458.94;4989778;28;20104;-68
2023/06/21 01:15:54;;;;;;;43.53;37.75;;;;;;;19.31;100.00;100451.19;4990678;28;20217;-68
2023/06/21 01:18:22;;;;;;;42.55;38.05;;;;;;;19.14;100.00;100442.75;4989612;28;20046;-69
2023/06/21 01:20:54;;;;;;;41.03;36.42;;;;;;;18.98;100.00;100455.06;4990129;28;20112;-68
2023/06/21 01:24:00;;;;;;;41.03;36.58;;;;;;;19.15;100.00;100447.16;4990111;28;20521;-69
2023/06/21 01:26:48;;;;;;;41.20;36.95;;;;;;;19.23;100.00;100446.88;4969438;28;20081;-68
2023/06/21 01:29:21;;;;;;;41.80;37.15;;;;;;;19.22;100.00;100442.50;4990178;28;20042;-68
2023/06/21 01:31:52;;;;;;;41.05;36.75;;;;;;;19.24;100.00;100448.53;4990183;28;20058;-69
2023/06/21 01:34:19;;;;;;;40.60;36.43;;;;;;;19.30;100.00;100444.09;4989717;28;20060;-69
2023/06/21 01:36:46;;;;;;;39.83;35.40;;;;;;;19.32;100.00;100450.97;5004549;28;20046;-68
2023/06/21 01:39:12;;;;;;;40.97;36.08;;;;;;;19.36;100.00;100444.03;5009268;28;20395;-68
2023/06/21 01:41:39;;;;;;;39.20;34.97;;;;;;;19.33;100.00;100449.91;5010016;28;20490;-68
2023/06/21 01:44:12;;;;;;;40.22;35.83;;;;;;;19.36;100.00;100446.75;5009691;28;20502;-68
2023/06/21 01:46:40;;;;;;;40.15;35.92;;;;;;;19.39;100.00;100440.84;5009242;28;20100;-68
2023/06/21 01:49:08;;;;;;;39.83;35.63;;;;;;;19.39;100.00;100437.31;5008929;28;20042;-68
2023/06/21 01:51:39;;;;;;;42.92;36.17;;;;;;;19.37;100.00;100442.94;5009083;28;20065;-68
2023/06/21 01:54:07;;;;;;;40.58;35.25;;;;;;;19.39;100.00;100446.28;5009741;28;20073;-68
2023/06/21 01:56:37;;;;;;;39.83;34.22;;;;;;;19.38;100.00;100449.22;5009623;28;20116;-67
2023/06/21 01:59:03;;;;;;;41.17;35.25;;;;;;;19.40;100.00;100447.94;5009471;28;20074;-67
2023/06/21 02:01:32;;;;;;;47.72;35.90;;;;;;;19.31;100.00;100452.03;5009854;28;20495;-68
2023/06/21 02:04:04;;;;;;;41.05;35.35;;;;;;;19.35;100.00;100450.53;5009717;28;20041;-69
2023/06/21 02:06:32;;;;;;;37.92;33.72;;;;;;;19.33;100.00;100449.91;5005339;28;20057;-68
2023/06/21 02:09:00;;;;;;;39.40;35.30;;;;;;;19.32;100.00;100467.28;5009347;28;20050;-68
2023/06/21 02:11:27;;;;;;;37.15;33.00;;;;;;;19.37;100.00;100463.88;5008696;28;20046;-67
2023/06/21 02:13:54;;;;;;;39.55;34.33;;;;;;;19.36;100.00;100468.50;5008584;28;20077;-69
2023/06/21 02:16:27;;;;;;;39.50;33.42;;;;;;;19.37;100.00;100481.03;5011995;28;20464;-69
2023/06/21 02:18:54;;;;;;;39.28;35.08;;;;;;;19.15;100.00;100518.69;5012674;28;20046;-70
2023/06/21 02:21:22;;;;;;;38.80;34.63;;;;;;;19.22;100.00;100538.50;5012170;28;20049;-69
2023/06/21 02:23:49;;;;;;;45.88;37.25;;;;;;;19.21;100.00;100534.13;5011905;28;20054;-69
2023/06/21 02:26:17;;;;;;;38.22;34.03;;;;;;;19.20;100.00;100534.34;5013317;28;20046;-69
2023/06/21 02:28:48;;;;;;;42.30;37.55;;;;;;;18.89;100.00;100555.03;5012685;28;20045;-69
2023/06/21 02:31:15;;;;;;;43.15;38.17;;;;;;;19.01;100.00;100558.75;5013703;28;20049;-68
2023/06/21 02:33:44;;;;;;;42.00;37.53;;;;;;;19.04;100.00;100562.91;5013349;28;20046;-69
2023/06/21 02:36:11;;;;;;;45.58;40.03;;;;;;;18.98;100.00;100564.63;5002919;28;20046;-68
2023/06/21 02:38:38;;;;;;;53.28;42.70;;;;;;;18.85;100.00;100559.22;4993257;28;20042;-69
2023/06/21 02:41:05;;;;;;;62.30;47.35;;;;;;;18.69;100.00;100551.63;4993332;28;20191;-67
2023/06/21 02:43:33;;;;;;;61.47;50.67;;;;;;;18.59;100.00;100545.81;4993937;28;20054;-68
2023/06/21 02:46:00;;;;;;;53.80;47.75;;;;;;;18.49;100.00;100530.81;4993672;28;20113;-68
2023/06/21 02:48:27;;;;;;;62.10;51.15;;;;;;;18.44;100.00;100527.06;4993207;28;20053;-67
2023/06/21 02:50:53;;;;;;;66.88;52.22;;;;;;;18.46;100.00;100525.00;4992674;28;20453;-68
2023/06/21 02:53:20;;;;;;;69.95;58.63;;;;;;;18.44;100.00;100513.50;4993245;28;20097;-68
2023/06/21 02:55:46;;;;;;;63.40;53.70;;;;;;;18.48;100.00;100509.28;4993013;28;20103;-68
2023/06/21 02:58:13;;;;;;;68.60;56.72;;;;;;;18.45;100.00;100507.88;4993560;28;20506;-68
2023/06/21 03:00:41;;;;;;;59.22;52.35;;;;;;;18.37;100.00;100497.22;4993479;28;20077;-69
2023/06/21 03:03:08;;;;;;;66.88;55.72;;;;;;;18.37;100.00;100489.09;4992303;28;20161;-68
2023/06/21 03:05:35;;;;;;;68.88;58.90;;;;;;;18.35;100.00;100488.50;4993014;28;20473;-68
2023/06/21 03:08:06;;;;;;;73.95;60.63;;;;;;;18.39;100.00;100470.69;4993345;28;20125;-69
2023/06/21 03:10:33;;;;;;;75.03;62.65;;;;;;;18.31;100.00;100476.41;4993165;28;20046;-67
2023/06/21 03:13:00;;;;;;;69.70;60.55;;;;;;;18.33;100.00;100466.13;4993953;28;20046;-69
2023/06/21 03:15:26;;;;;;;70.85;56.72;;;;;;;18.29;100.00;100463.03;4993556;28;20046;-68
2023/06/21 03:17:54;;;;;;;62.50;55.70;;;;;;;18.34;100.00;100458.81;4993607;28;20461;-69
2023/06/21 03:20:22;;;;;;;62.38;54.28;;;;;;;18.30;100.00;100459.25;4993509;28;20076;-68
2023/06/21 03:22:49;;;;;;;67.53;57.25;;;;;;;18.33;100.00;100479.72;4993394;28;20495;-68
2023/06/21 03:25:16;;;;;;;65.78;56.53;;;;;;;18.27;100.00;100486.88;4993257;28;20047;-68
2023/06/21 03:27:42;;;;;;;66.70;55.95;;;;;;;18.29;100.00;100484.75;4992451;28;20042;-68
2023/06/21 03:30:11;;;;;;;65.15;54.95;;;;;;;18.00;100.00;100496.97;4993358;28;20469;-68
2023/06/21 03:32:46;;;;;;;65.10;54.63;;;;;;;17.87;100.00;100510.59;4992872;28;20121;-68
2023/06/21 03:35:15;;;;;;;56.78;50.58;;;;;;;17.68;100.00;100497.91;4995971;28;20064;-69
2023/06/21 03:37:42;;;;;;;67.93;55.30;;;;;;;17.96;100.00;100495.75;5012210;28;20124;-68
2023/06/21 03:40:16;;;;;;;69.70;58.88;;;;;;;17.90;100.00;100498.47;5012216;28;20115;-69
2023/06/21 03:42:43;;;;;;;66.38;58.28;;;;;;;18.06;100.00;100506.13;5012386;28;20137;-68
2023/06/21 03:45:11;;;;;;;68.03;60.05;;;;;;;17.91;100.00;100492.00;5012082;28;20046;-69
2023/06/21 03:47:39;;;;;;;68.47;60.88;;;;;;;17.98;100.00;100499.06;5011957;28;20070;-69
2023/06/21 03:50:07;;;;;;;69.35;60.92;;;;;;;18.05;100.00;100505.28;5011915;28;20052;-68
2023/06/21 03:52:34;;;;;;;67.10;59.58;;;;;;;18.10;100.00;100501.94;5012008;28;20050;-69
2023/06/21 03:55:01;;;;;;;71.05;62.65;;;;;;;18.11;100.00;100503.59;5012314;28;20520;-69
2023/06/21 03:57:28;;;;;;;76.57;67.57;;;;;;;18.16;100.00;100500.28;5011901;28;20453;-69
2023/06/21 03:59:55;;;;;;;73.25;64.57;;;;;;;18.22;100.00;100499.41;5011679;28;20045;-70
2023/06/21 04:02:21;;;;;;;76.80;64.80;;;;;;;18.25;100.00;100504.41;5011720;28;20080;-69
2023/06/21 04:04:48;;;;;;;83.38;65.97;;;;;;;18.26;100.00;100497.94;5011562;28;20058;-70
2023/06/21 04:07:18;;;;;;;68.78;60.97;;;;;;;18.20;100.00;100499.66;5011993;28;20049;-69
2023/06/21 04:09:47;;;;;;;77.93;66.57;;;;;;;18.29;100.00;100500.22;5011132;28;20050;-70
2023/06/21 04:12:14;;;;;;;73.85;61.22;;;;;;;18.27;100.00;100500.44;5011730;28;20512;-68
2023/06/21 04:14:41;;;;;;;67.38;59.97;;;;;;;18.27;100.00;100521.31;5011569;28;20050;-69
2023/06/21 04:17:07;;;;;;;64.93;57.95;;;;;;;18.32;100.00;100526.94;5011542;28;20073;-69
2023/06/21 04:19:34;;;;;;;68.65;61.08;;;;;;;18.38;100.00;100536.94;5011435;28;20046;-69
2023/06/21 04:22:01;;;;;;;64.55;57.47;;;;;;;18.41;100.00;100560.09;5011997;28;20046;-69
2023/06/21 04:24:27;;;;;;;69.38;61.80;;;;;;;18.50;100.00;100569.69;5011114;28;20387;-69
2023/06/21 04:26:57;;;;;;;65.85;58.25;;;;;;;18.58;100.00;100568.59;5011376;28;20046;-69
2023/06/21 04:29:25;;;;;;;74.88;62.08;;;;;;;18.53;100.00;100599.97;5011142;28;20084;-69
2023/06/21 04:31:52;;;;;;;72.00;62.22;;;;;;;18.59;100.00;100592.84;5011705;28;20049;-69
2023/06/21 04:34:19;;;;;;;65.43;58.13;;;;;;;18.62;100.00;100591.56;4994723;28;20046;-69
2023/06/21 04:36:47;;;;;;;67.75;59.45;;;;;;;18.69;100.00;100605.97;4996754;28;20104;-68
2023/06/21 04:39:15;;;;;;;64.47;57.55;;;;;;;18.75;100.00;100605.06;4991328;28;20092;-69
2023/06/21 04:41:42;;;;;;;67.72;58.25;;;;;;;18.72;100.00;100613.66;4991946;28;20097;-70
2023/06/21 04:44:08;;;;;;;72.20;59.47;;;;;;;18.75;100.00;100621.38;4991275;28;20506;-69
2023/06/21 04:46:35;;;;;;;63.78;55.85;;;;;;;18.81;100.00;100623.25;4990233;28;20038;-68
2023/06/21 04:49:04;;;;;;;59.80;53.35;;;;;;;18.90;100.00;100621.94;4991839;28;20112;-69
2023/06/21 04:51:31;;;;;;;63.17;55.45;;;;;;;18.86;100.00;100626.16;4992107;28;20050;-69
2023/06/21 04:53:58;;;;;;;69.63;62.03;;;;;;;18.84;100.00;100627.41;4991765;28;20046;-70
2023/06/21 04:56:26;;;;;;;69.45;59.85;;;;;;;18.85;100.00;100626.34;4990632;28;20046;-70
2023/06/21 04:58:53;;;;;;;63.58;56.63;;;;;;;18.83;100.00;100636.63;4991974;28;21420;-69
2023/06/21 05:01:20;;;;;;;64.18;56.78;;;;;;;18.86;100.00;100638.88;4991587;28;20065;-69
2023/06/21 05:03:52;;;;;;;67.18;59.80;;;;;;;18.88;100.00;100634.09;4991206;28;20046;-70
2023/06/21 05:06:22;;;;;;;66.22;56.83;;;;;;;18.89;100.00;100636.56;4991472;28;20565;-69
2023/06/21 05:08:49;;;;;;;66.80;57.42;;;;;;;18.89;100.00;100647.44;4991833;28;20046;-70
2023/06/21 05:11:17;;;;;;;66.65;56.13;;;;;;;19.00;100.00;100646.81;4991201;28;20093;-70
2023/06/21 05:13:44;;;;;;;70.25;58.90;;;;;;;18.98;100.00;100648.06;4991127;28;20069;-70
2023/06/21 05:16:11;;;;;;;63.15;55.30;;;;;;;18.96;100.00;100637.41;4991164;28;20112;-69
2023/06/21 05:18:38;;;;;;;66.70;56.45;;;;;;;19.06;100.00;100646.97;4990920;28;20407;-69
2023/06/21 05:21:05;;;;;;;59.15;52.78;;;;;;;19.09;100.00;100649.25;4990903;28;20053;-70
2023/06/21 05:23:33;;;;;;;66.10;56.17;;;;;;;19.20;100.00;100656.72;4991594;28;20043;-69
2023/06/21 05:26:00;;;;;;;60.22;53.95;;;;;;;19.23;100.00;100650.84;4991451;28;20042;-70
2023/06/21 05:28:30;;;;;;;61.22;54.63;;;;;;;19.34;100.00;100652.84;4991161;28;20467;-70
2023/06/21 05:30:57;;;;;;;71.50;58.10;;;;;;;19.35;100.00;100646.38;4991163;28;20104;-69
2023/06/21 05:33:23;;;;;;;60.33;53.92;;;;;;;19.47;100.00;100643.75;4990945;28;20054;-69
2023/06/21 05:35:50;;;;;;;64.00;56.13;;;;;;;19.56;100.00;100666.94;4997913;28;20136;-69
2023/06/21 05:38:16;;;;;;;61.08;54.47;;;;;;;19.57;100.00;100671.31;5010092;28;20049;-70
2023/06/21 05:40:43;;;;;;;59.08;52.60;;;;;;;19.54;100.00;100673.66;5009989;28;20050;-69
2023/06/21 05:43:10;;;;;;;59.85;53.30;;;;;;;19.57;100.00;100682.19;5010153;28;20046;-70
2023/06/21 05:45:38;;;;;;;63.40;56.83;;;;;;;19.54;100.00;100679.91;5009883;28;20050;-70
2023/06/21 05:48:05;;;;;;;63.53;54.72;;;;;;;19.53;100.00;100674.72;5010149;28;20048;-70
2023/06/21 05:50:31;;;;;;;59.22;52.92;;;;;;;19.54;100.00;100673.66;5012273;28;20052;-70
2023/06/21 05:52:58;;;;;;;64.03;54.10;;;;;;;19.57;100.00;100675.94;5014413;28;20045;-70
2023/06/21 05:55:25;;;;;;;60.22;51.60;;;;;;;19.59;100.00;100684.69;5013917;28;20050;-70
2023/06/21 05:57:51;;;;;;;57.15;49.95;;;;;;;19.58;100.00;100683.84;5013566;28;20081;-73
2023/06/21 06:00:18;;;;;;;52.95;47.40;;;;;;;19.55;100.00;100672.59;5014029;28;20046;-70
2023/06/21 06:02:45;;;;;;;60.28;48.88;;;;;;;19.55;100.00;100678.03;5014134;28;20050;-70
2023/06/21 06:05:12;;;;;;;58.92;49.53;;;;;;;19.53;100.00;100685.59;5014028;28;20389;-70
2023/06/21 06:07:39;;;;;;;55.85;49.97;;;;;;;19.50;100.00;100681.41;5014115;28;20049;-70
2023/06/21 06:10:06;;;;;;;83.60;63.60;;;;;;;19.52;100.00;100673.03;5013706;28;20490;-70
2023/06/21 06:12:33;;;;;;;70.78;53.70;;;;;;;19.56;100.00;100685.16;5014236;28;20046;-70
2023/06/21 06:15:00;;;;;;;54.65;48.65;;;;;;;19.58;100.00;100683.84;5013799;28;20158;-71
2023/06/21 06:17:27;;;;;;;55.20;49.25;;;;;;;19.64;100.00;100690.31;5013165;28;20505;-70
2023/06/21 06:19:54;;;;;;;54.55;46.80;;;;;;;19.77;100.00;100686.69;5013936;28;20061;-70
2023/06/21 06:22:20;;;;;;;52.85;47.42;;;;;;;19.86;100.00;100682.63;5012985;28;20057;-70
2023/06/21 06:24:48;;;;;;;52.30;46.63;;;;;;;19.95;100.00;100687.56;5013691;28;20076;-70
2023/06/21 06:27:15;;;;;;;51.78;44.50;;;;;;;20.00;100.00;100686.88;5013451;28;20520;-70
2023/06/21 06:29:41;;;;;;;46.28;41.30;;;;;;;20.10;100.00;100695.38;5011844;28;20053;-64
2023/06/21 06:32:08;;;;;;;45.45;40.60;;;;;;;20.16;100.00;100690.94;5013340;28;20048;-65
2023/06/21 06:34:35;;;;;;;45.83;38.90;;;;;;;20.19;100.00;100695.94;5012714;28;20049;-65
2023/06/21 06:37:04;;;;;;;42.88;38.17;;;;;;;20.10;100.00;100697.28;5013216;28;20048;-65
2023/06/21 06:39:39;;;;;;;40.13;35.67;;;;;;;20.18;100.00;100699.72;5013123;28;20049;-65
2023/06/21 06:42:06;;;;;;;41.15;34.67;;;;;;;20.19;100.00;100695.94;5013083;28;20494;-65
2023/06/21 06:44:33;;;;;;;38.00;34.05;;;;;;;20.29;100.00;100700.88;5012127;28;20046;-66
2023/06/21 06:47:00;;;;;;;37.72;33.83;;;;;;;20.34;100.00;100703.75;5012368;28;20449;-65
2023/06/21 06:49:27;;;;;;;40.60;34.97;;;;;;;20.43;100.00;100706.00;5012781;28;20104;-66
2023/06/21 06:51:54;;;;;;;37.33;33.40;;;;;;;20.60;100.00;100710.84;5012137;28;20045;-65
2023/06/21 06:54:20;;;;;;;38.50;34.60;;;;;;;20.69;100.00;100704.00;5012976;28;20100;-65
2023/06/21 06:56:47;;;;;;;46.28;41.05;;;;;;;20.75;100.00;100711.28;5013361;28;20053;-65
2023/06/21 06:59:14;;;;;;;38.78;34.53;;;;;;;20.76;100.00;100712.13;5012748;28;20046;-63
2023/06/21 07:01:40;;;;;;;33.47;30.17;;;;;;;20.87;100.00;100714.94;4994496;28;20505;-63
2023/06/21 07:04:07;;;;;;;33.17;29.88;;;;;;;20.96;100.00;100709.16;5013045;28;20056;-64
2023/06/21 07:06:34;;;;;;;31.73;28.35;;;;;;;21.12;100.00;100714.84;4996593;28;20052;-63
2023/06/21 07:09:02;;;;;;;30.85;27.75;;;;;;;21.28;100.00;100721.53;5012740;28;20041;-63
2023/06/21 07:11:29;;;;;;;26.30;23.08;;;;;;;21.23;100.00;100723.31;5013002;28;20068;-64
2023/06/21 07:13:55;;;;;;;29.27;25.42;;;;;;;21.25;100.00;100729.34;5012821;28;20058;-64
2023/06/21 07:16:22;;;;;;;27.38;24.65;;;;;;;21.25;100.00;100727.47;5012376;28;20490;-64
2023/06/21 07:18:48;;;;;;;30.65;23.58;;;;;;;21.32;100.00;100743.72;5012573;28;20050;-64
2023/06/21 07:21:17;;;;;;;27.95;24.35;;;;;;;21.29;100.00;100745.03;5012723;28;20072;-64
2023/06/21 07:23:48;;;;;;;35.30;27.05;;;;;;;21.48;100.00;100753.19;5011986;28;20054;-64
2023/06/21 07:26:15;;;;;;;34.03;27.55;;;;;;;21.47;100.00;100749.63;5012628;28;20046;-64
2023/06/21 07:28:42;;;;;;;31.83;26.55;;;;;;;21.54;100.00;100754.97;5012355;28;20488;-66
2023/06/21 07:31:08;;;;;;;31.77;25.13;;;;;;;21.50;100.00;100757.34;5012834;28;20052;-65
2023/06/21 07:33:35;;;;;;;28.73;25.70;;;;;;;21.69;100.00;100757.28;5012957;28;20072;-64
2023/06/21 07:36:02;;;;;;;27.58;24.63;;;;;;;22.15;100.00;100759.31;5003633;28;20042;-64
2023/06/21 07:38:29;;;;;;;25.63;22.88;;;;;;;22.41;100.00;100768.09;4993273;28;20046;-65
2023/06/21 07:40:55;;;;;;;24.27;21.35;;;;;;;22.73;100.00;100765.84;4993059;28;20054;-64
2023/06/21 07:43:22;;;;;;;29.83;20.02;;;;;;;23.24;100.00;100762.28;4992664;28;20458;-66
2023/06/21 07:45:49;;;;;;;23.42;19.38;;;;;;;23.19;100.00;100764.09;4992541;28;20050;-66
2023/06/21 07:48:33;;;;;;;21.58;19.10;;;;;;;23.33;100.00;100772.84;4992779;28;20046;-67
2023/06/21 07:51:01;;;;;;;21.98;19.48;;;;;;;23.30;100.00;100776.09;4992021;28;20039;-65
2023/06/21 07:53:27;;;;;;;23.42;19.83;;;;;;;23.50;100.00;100781.94;4992621;28;20046;-65
2023/06/21 07:56:00;;;;;;;21.42;18.27;;;;;;;23.68;100.00;100789.13;4992967;28;20121;-65
2023/06/21 07:58:26;;;;;;;27.42;18.88;;;;;;;23.79;100.00;100785.53;4992900;28;20050;-65
2023/06/21 08:00:53;;;;;;;23.88;16.35;;;;;;;24.27;100.00;100784.13;4992948;28;20053;-66
2023/06/21 08:03:19;;;;;;;17.05;15.30;;;;;;;24.42;100.00;100789.06;4992597;28;20414;-65
2023/06/21 08:05:46;;;;;;;17.48;15.65;;;;;;;24.56;100.00;100787.63;4992674;28;20121;-65
2023/06/21 08:08:15;;;;;;;18.45;15.38;;;;;;;24.63;100.00;100801.16;4992320;28;20099;-66
2023/06/21 08:10:42;;;;;;;21.00;16.38;;;;;;;24.71;100.00;100797.97;4992278;28;20050;-65
2023/06/21 08:13:08;;;;;;;16.33;14.57;;;;;;;24.82;100.00;100807.16;4992211;28;20050;-65
2023/06/21 08:15:35;;;;;;;19.83;14.45;;;;;;;25.08;100.00;100809.22;4992967;28;20050;-66
2023/06/21 08:18:01;;;;;;;18.75;14.80;;;;;;;25.37;100.00;100809.84;4992468;28;20046;-66
2023/06/21 08:20:28;;;;;;;16.17;13.80;;;;;;;25.83;100.00;100815.84;4992165;28;20062;-66
2023/06/21 08:22:55;;;;;;;16.65;13.45;;;;;;;25.90;100.00;100806.56;4992424;28;20050;-67
2023/06/21 08:25:22;;;;;;;18.83;13.35;;;;;;;25.96;100.00;100813.75;4992488;28;20411;-65
2023/06/21 08:27:48;;;;;;;14.52;12.75;;;;;;;25.75;100.00;100812.72;4992177;28;20081;-66
2023/06/21 08:30:15;;;;;;;16.38;12.65;;;;;;;25.90;100.00;100820.31;4992151;28;20052;-69
2023/06/21 08:32:41;;;;;;;14.43;12.45;;;;;;;25.65;100.00;100823.63;4991865;28;20105;-71
2023/06/21 08:35:08;;;;;;;15.65;11.35;;;;;;;25.81;100.00;100823.50;4991848;28;20043;-68
2023/06/21 08:37:35;;;;;;;11.93;10.60;;;;;;;26.20;100.00;100830.75;4992411;28;20050;-69
2023/06/21 08:40:02;;;;;;;12.90;10.55;;;;;;;26.37;100.00;100831.47;4992195;28;20089;-69
2023/06/21 08:42:28;;;;;;;15.13;10.98;;;;;;;26.80;100.00;100829.59;4991825;28;20049;-71
2023/06/21 08:44:56;;;;;;;19.33;10.98;;;;;;;27.14;100.00;100832.78;4991656;28;20077;-68
2023/06/21 08:47:28;;;;;;;13.60;10.80;;;;;;;26.94;100.00;100836.28;4991894;28;20046;-68
2023/06/21 08:49:58;;;;;;;10.85;9.50;;;;;;;27.18;100.00;100833.09;4991844;28;21085;-68
2023/06/21 08:52:28;;;;;;;13.85;10.27;;;;;;;27.31;100.00;100834.50;4991861;28;20046;-68
2023/06/21 08:55:02;;;;;;;15.13;9.38;;;;;;;27.58;100.00;100845.38;4991856;28;20057;-68
2023/06/21 08:57:32;;;;;;;10.63;8.68;;;;;;;27.31;100.00;100846.34;4991793;28;20050;-69
2023/06/21 09:00:03;;;;;;;12.07;8.68;;;;;;;27.54;100.00;100845.09;4991951;28;20046;-69
2023/06/21 09:03:06;;;;;;;13.95;7.70;;;;;;;27.87;100.00;100851.28;4992027;28;20066;-67
2023/06/21 09:05:41;;;;;;;10.63;8.00;;;;;;;27.99;97.64;100854.59;4986353;28;20053;-68
2023/06/21 09:08:08;;;;;;;10.10;7.63;;;;;;;28.12;97.54;100858.75;4991671;28;20163;-67
2023/06/21 09:10:39;;;;;;;11.18;8.40;;;;;;;27.92;97.73;100868.63;4991356;28;20066;-68
2023/06/21 09:13:06;;;;;;;10.27;7.60;;;;;;;27.86;98.94;100857.84;4991623;28;20046;-71
2023/06/21 09:15:34;;;;;;;8.95;7.40;;;;;;;28.16;94.58;100857.09;4991696;28;20066;-66
2023/06/21 09:18:01;;;;;;;11.18;7.60;;;;;;;28.56;84.19;100863.72;4991685;28;20046;-66
2023/06/21 09:20:29;;;;;;;12.60;7.13;;;;;;;29.05;77.73;100857.59;4991849;28;20046;-68
2023/06/21 09:22:57;;;;;;;8.38;7.00;;;;;;;29.00;77.27;100863.94;4990115;28;20089;-67
2023/06/21 09:25:25;;;;;;;12.98;6.97;;;;;;;29.57;73.33;100870.09;4990856;28;20079;-69
2023/06/21 09:27:53;;;;;;;8.60;6.38;;;;;;;29.81;69.82;100871.06;4991208;28;20062;-67
2023/06/21 09:30:21;;;;;;;8.13;5.93;;;;;;;29.80;67.95;100877.69;4991618;28;20416;-67
2023/06/21 09:33:03;;;;;;;11.82;6.88;;;;;;;29.87;68.78;100879.31;4991429;28;20062;-66
2023/06/21 09:35:30;;;;;;;12.52;6.82;;;;;;;29.79;68.57;100875.22;4996222;28;20041;-66
2023/06/21 09:37:57;;;;;;;7.95;6.32;;;;;;;30.26;67.07;100869.13;5010418;28;20050;-68
2023/06/21 09:40:23;;;;;;;9.00;6.35;;;;;;;30.16;67.40;100865.59;5003163;28;20077;-65
2023/06/21 09:42:50;;;;;;;7.60;6.57;;;;;;;30.41;67.31;100872.88;5023705;28;20108;-66
2023/06/21 09:45:18;;;;;;;7.10;6.35;;;;;;;30.29;64.60;100873.22;5010326;28;20100;-64
2023/06/21 09:47:45;;;;;;;8.15;6.22;;;;;;;30.06;64.67;100877.56;5009191;28;20078;-66
2023/06/21 09:50:12;;;;;;;8.85;6.15;;;;;;;30.38;62.74;100867.91;5010402;28;20080;-65
2023/06/21 09:52:43;;;;;;;12.43;6.65;;;;;;;30.66;62.46;100877.38;5010322;28;20108;-67
2023/06/21 09:55:14;;;;;;;11.63;10.43;;;;;;;30.83;60.47;100877.75;5010556;28;20069;-67
2023/06/21 09:57:41;;;;;;;14.48;6.00;;;;;;;31.10;58.53;100873.59;5010462;28;20050;-65
2023/06/21 10:00:08;;;;;;;10.55;5.88;;;;;;;31.05;57.48;100876.41;5010644;28;20454;-66
2023/06/21 10:02:41;;;;;;;9.23;5.50;;;;;;;30.65;57.44;100868.22;5010674;28;20046;-65
2023/06/21 10:05:26;;;;;;;8.70;5.50;;;;;;;30.73;59.45;100881.44;5010113;28;20057;-66
2023/06/21 10:07:52;;;;;;;9.10;6.07;;;;;;;30.54;60.49;100878.59;5010659;28;20123;-66
2023/06/21 10:10:19;;;;;;;6.32;5.40;;;;;;;30.66;59.62;100889.25;4993066;28;20437;-65
2023/06/21 10:12:50;;;;;;;7.68;5.57;;;;;;;30.57;59.09;100874.41;5010396;28;20100;-66
2023/06/21 10:15:21;;;;;;;7.55;5.85;;;;;;;30.61;58.62;100883.78;5010013;28;20041;-66
2023/06/21 10:17:47;;;;;;;11.48;8.90;;;;;;;30.61;57.73;100883.78;5010290;28;20052;-68
2023/06/21 10:20:31;;;;;;;7.07;5.30;;;;;;;30.14;59.08;100885.25;5010254;28;20042;-65
2023/06/21 10:23:01;;;;;;;7.00;5.88;;;;;;;30.37;58.35;100891.16;5009900;28;20037;-65
2023/06/21 10:25:28;;;;;;;5.60;4.63;;;;;;;30.73;56.35;100894.47;5010245;28;20069;-67
2023/06/21 10:27:58;;;;;;;6.97;5.00;;;;;;;31.07;54.42;100897.19;5009736;28;20465;-68
2023/06/21 10:30:27;;;;;;;5.30;4.80;;;;;;;30.80;55.03;100892.16;5010062;28;20104;-66
2023/06/21 10:32:57;;;;;;;11.20;6.18;;;;;;;30.06;56.25;100895.00;5010178;28;20715;-65
2023/06/21 10:35:27;;;;;;;9.35;5.03;;;;;;;29.68;57.91;100909.56;5006037;28;20073;-66
2023/06/21 10:37:56;;;;;;;6.47;4.90;;;;;;;29.28;59.30;100892.03;4994500;28;20057;-65
2023/06/21 10:40:24;;;;;;;5.38;4.70;;;;;;;29.14;61.14;100889.84;4994272;28;20371;-65
2023/06/21 10:42:53;;;;;;;6.32;5.32;;;;;;;28.99;62.18;100886.31;4993918;28;20050;-65
2023/06/21 10:45:20;;;;;;;7.70;5.78;;;;;;;28.78;64.94;100891.84;4994379;28;20050;-67
2023/06/21 10:47:47;;;;;;;6.50;5.70;;;;;;;28.52;65.01;100890.22;4994189;28;20058;-65
2023/06/21 10:50:15;;;;;;;6.18;5.57;;;;;;;28.04;68.06;100901.47;4994372;28;20046;-65
2023/06/21 10:52:43;;;;;;;9.57;6.10;;;;;;;27.99;68.86;100889.59;4994179;28;20066;-66
2023/06/21 10:55:13;;;;;;;6.13;5.20;;;;;;;27.65;72.69;100901.06;4994089;28;20046;-64
2023/06/21 10:57:40;;;;;;;10.23;5.53;;;;;;;27.57;77.35;100905.16;4993808;28;20395;-66
2023/06/21 11:00:08;;;;;;;10.25;5.57;;;;;;;27.57;77.11;100904.34;4993543;28;20057;-66
2023/06/21 11:02:35;;;;;;;7.57;5.25;;;;;;;27.69;77.40;100902.16;4993788;28;20054;-64
2023/06/21 11:05:18;;;;;;;5.43;4.60;;;;;;;28.01;72.93;100898.41;4994016;28;20405;-65
2023/06/21 11:07:57;;;;;;;9.25;4.75;;;;;;;28.25;69.34;100898.72;4993165;28;20049;-65
2023/06/21 11:10:39;;;;;;;6.68;4.45;;;;;;;28.41;68.30;100898.50;4993300;28;20419;-65
2023/06/21 11:13:07;;;;;;;6.53;5.20;;;;;;;28.39;68.10;100900.69;4993758;28;20043;-65
2023/06/21 11:15:37;;;;;;;6.07;5.10;;;;;;;28.20;66.92;100907.84;4993150;28;20577;-65